sensor_id;sensor_type;location;lat;lon;timestamp;temperature;humidity
5930;DHT22;2990;48.746;9.236;2022-07-06T00:01:21;18.70;1.00
5930;DHT22;2990;48.746;9.236;2022-07-06T00:03:47;18.60;1.00
5930;DHT22;2990;48.746;9.236;2022-07-06T00:06:13;18.70;1.00
5930;DHT22;2990;48.746;9.236;2022-07-06T00:08:38;18.50;1.00
5930;DHT22;2990;48.746;9.236;2022-07-06T00:11:04;18.40;1.00
5930;DHT22;2990;48.746;9.236;2022-07-06T00:13:30;18.40;1.00
5930;DHT22;2990;48.746;9.236;2022-07-06T00:15:56;18.40;1.00
5930;DHT22;2990;48.746;9.236;2022-07-06T00:18:21;18.40;1.00
5930;DHT22;2990;48.746;9.236;2022-07-06T00:20:47;18.40;1.00
5930;DHT22;2990;48.746;9.236;2022-07-06T00:23:13;18.30;1.00
5930;DHT22;2990;48.746;9.236;2022-07-06T00:25:38;18.30;1.00
5930;DHT22;2990;48.746;9.236;2022-07-06T00:28:04;18.30;1.00
5930;DHT22;2990;48.746;9.236;2022-07-06T00:30:29;18.20;1.00
5930;DHT22;2990;48.746;9.236;2022-07-06T00:32:55;18.20;1.00
5930;DHT22;2990;48.746;9.236;2022-07-06T00:35:24;18.20;1.00
5930;DHT22;2990;48.746;9.236;2022-07-06T00:37:51;18.10;1.00
5930;DHT22;2990;48.746;9.236;2022-07-06T00:40:17;18.10;1.00
5930;DHT22;2990;48.746;9.236;2022-07-06T00:42:44;18.20;1.00
5930;DHT22;2990;48.746;9.236;2022-07-06T00:45:11;18.10;1.00
5930;DHT22;2990;48.746;9.236;2022-07-06T00:47:38;18.10;1.00
5930;DHT22;2990;48.746;9.236;2022-07-06T00:50:05;18.00;1.00
5930;DHT22;2990;48.746;9.236;2022-07-06T00:52:45;18.00;1.00
5930;DHT22;2990;48.746;9.236;2022-07-06T00:55:12;18.00;1.00
5930;DHT22;2990;48.746;9.236;2022-07-06T00:57:39;18.00;1.00
5930;DHT22;2990;48.746;9.236;2022-07-06T01:00:06;17.90;1.00
5930;DHT22;2990;48.746;9.236;2022-07-06T01:02:33;17.90;1.00
5930;DHT22;2990;48.746;9.236;2022-07-06T01:05:00;17.90;1.00
5930;DHT22;2990;48.746;9.236;2022-07-06T01:07:26;17.90;1.00
5930;DHT22;2990;48.746;9.236;2022-07-06T01:09:53;17.90;1.00
5930;DHT22;2990;48.746;9.236;2022-07-06T01:12:18;17.90;1.00
5930;DHT22;2990;48.746;9.236;2022-07-06T01:14:45;17.80;1.00
5930;DHT22;2990;48.746;9.236;2022-07-06T01:17:11;17.80;1.00
5930;DHT22;2990;48.746;9.236;2022-07-06T01:19:38;17.80;1.00
5930;DHT22;2990;48.746;9.236;2022-07-06T01:22:03;17.70;1.00
5930;DHT22;2990;48.746;9.236;2022-07-06T01:24:29;17.70;1.00
5930;DHT22;2990;48.746;9.236;2022-07-06T01:26:55;17.60;1.00
5930;DHT22;2990;48.746;9.236;2022-07-06T01:29:20;17.60;1.00
5930;DHT22;2990;48.746;9.236;2022-07-06T01:31:47;17.60;1.00
5930;DHT22;2990;48.746;9.236;2022-07-06T01:34:14;17.60;1.00
5930;DHT22;2990;48.746;9.236;2022-07-06T01:36:40;17.50;1.00
5930;DHT22;2990;48.746;9.236;2022-07-06T01:39:08;17.50;1.00
5930;DHT22;2990;48.746;9.236;2022-07-06T01:41:34;17.50;1.00
5930;DHT22;2990;48.746;9.236;2022-07-06T01:43:59;17.50;1.00
5930;DHT22;2990;48.746;9.236;2022-07-06T01:46:25;17.40;1.00
5930;DHT22;2990;48.746;9.236;2022-07-06T01:48:50;17.40;1.00
5930;DHT22;2990;48.746;9.236;2022-07-06T01:51:16;17.40;1.00
5930;DHT22;2990;48.746;9.236;2022-07-06T01:53:42;17.40;1.00
5930;DHT22;2990;48.746;9.236;2022-07-06T01:56:07;17.20;1.00
5930;DHT22;2990;48.746;9.236;2022-07-06T01:58:33;17.20;1.00
5930;DHT22;2990;48.746;9.236;2022-07-06T02:00:59;17.20;1.00
5930;DHT22;2990;48.746;9.236;2022-07-06T02:03:25;17.10;1.00
5930;DHT22;2990;48.746;9.236;2022-07-06T02:05:51;17.10;1.00
5930;DHT22;2990;48.746;9.236;2022-07-06T02:08:16;17.00;1.00
5930;DHT22;2990;48.746;9.236;2022-07-06T02:10:42;17.00;1.00
5930;DHT22;2990;48.746;9.236;2022-07-06T02:13:08;16.90;1.00
5930;DHT22;2990;48.746;9.236;2022-07-06T02:15:33;16.90;1.00
5930;DHT22;2990;48.746;9.236;2022-07-06T02:17:59;16.90;1.00
5930;DHT22;2990;48.746;9.236;2022-07-06T02:20:24;16.90;1.00
5930;DHT22;2990;48.746;9.236;2022-07-06T02:22:50;16.80;1.00
5930;DHT22;2990;48.746;9.236;2022-07-06T02:25:16;16.80;1.00
5930;DHT22;2990;48.746;9.236;2022-07-06T02:27:41;16.70;1.00
5930;DHT22;2990;48.746;9.236;2022-07-06T02:30:07;16.70;1.00
5930;DHT22;2990;48.746;9.236;2022-07-06T02:32:33;16.60;1.00
5930;DHT22;2990;48.746;9.236;2022-07-06T02:34:58;16.50;1.00
5930;DHT22;2990;48.746;9.236;2022-07-06T02:37:24;16.50;1.00
5930;DHT22;2990;48.746;9.236;2022-07-06T02:39:49;16.50;1.00
5930;DHT22;2990;48.746;9.236;2022-07-06T02:42:15;16.40;1.00
5930;DHT22;2990;48.746;9.236;2022-07-06T02:44:40;16.40;1.00
5930;DHT22;2990;48.746;9.236;2022-07-06T02:47:06;16.30;1.00
5930;DHT22;2990;48.746;9.236;2022-07-06T02:49:32;16.30;1.00
5930;DHT22;2990;48.746;9.236;2022-07-06T02:51:57;16.30;1.00
5930;DHT22;2990;48.746;9.236;2022-07-06T02:54:23;16.20;1.00
5930;DHT22;2990;48.746;9.236;2022-07-06T02:56:49;16.30;1.00
5930;DHT22;2990;48.746;9.236;2022-07-06T02:59:18;16.20;13.30
5930;DHT22;2990;48.746;9.236;2022-07-06T03:01:44;16.20;1.00
5930;DHT22;2990;48.746;9.236;2022-07-06T03:04:09;16.10;18.10
5930;DHT22;2990;48.746;9.236;2022-07-06T03:06:35;16.10;2.40
5930;DHT22;2990;48.746;9.236;2022-07-06T03:09:01;16.10;7.00
5930;DHT22;2990;48.746;9.236;2022-07-06T03:11:27;16.00;11.90
5930;DHT22;2990;48.746;9.236;2022-07-06T03:13:52;16.10;21.80
5930;DHT22;2990;48.746;9.236;2022-07-06T03:16:18;16.10;23.30
5930;DHT22;2990;48.746;9.236;2022-07-06T03:18:43;16.00;31.60
5930;DHT22;2990;48.746;9.236;2022-07-06T03:21:09;15.90;32.70
5930;DHT22;2990;48.746;9.236;2022-07-06T03:23:34;15.90;45.00
5930;DHT22;2990;48.746;9.236;2022-07-06T03:26:00;15.90;47.30
5930;DHT22;2990;48.746;9.236;2022-07-06T03:28:26;15.90;51.00
5930;DHT22;2990;48.746;9.236;2022-07-06T03:30:51;15.90;57.60
5930;DHT22;2990;48.746;9.236;2022-07-06T03:33:17;15.90;61.20
5930;DHT22;2990;48.746;9.236;2022-07-06T03:35:42;15.90;64.60
5930;DHT22;2990;48.746;9.236;2022-07-06T03:38:08;15.90;69.90
5930;DHT22;2990;48.746;9.236;2022-07-06T03:40:33;15.90;73.40
5930;DHT22;2990;48.746;9.236;2022-07-06T03:42:59;15.90;78.20
5930;DHT22;2990;48.746;9.236;2022-07-06T03:45:25;15.80;97.90
5930;DHT22;2990;48.746;9.236;2022-07-06T04:27:11;15.70;99.90
5930;DHT22;2990;48.746;9.236;2022-07-06T04:29:36;15.70;99.90
5930;DHT22;2990;48.746;9.236;2022-07-06T04:32:02;15.70;99.90
5930;DHT22;2990;48.746;9.236;2022-07-06T04:34:28;15.70;99.90
5930;DHT22;2990;48.746;9.236;2022-07-06T04:36:54;15.80;99.90
5930;DHT22;2990;48.746;9.236;2022-07-06T04:39:19;15.90;99.90
5930;DHT22;2990;48.746;9.236;2022-07-06T04:41:45;16.00;99.90
5930;DHT22;2990;48.746;9.236;2022-07-06T04:44:10;16.00;99.90
5930;DHT22;2990;48.746;9.236;2022-07-06T04:46:36;16.10;99.90
5930;DHT22;2990;48.746;9.236;2022-07-06T04:49:01;16.10;99.90
5930;DHT22;2990;48.746;9.236;2022-07-06T04:51:27;16.20;99.90
5930;DHT22;2990;48.746;9.236;2022-07-06T04:53:52;16.20;99.90
5930;DHT22;2990;48.746;9.236;2022-07-06T04:56:18;16.20;99.90
5930;DHT22;2990;48.746;9.236;2022-07-06T04:58:43;16.30;99.90
5930;DHT22;2990;48.746;9.236;2022-07-06T05:01:09;16.40;99.90
5930;DHT22;2990;48.746;9.236;2022-07-06T05:03:34;16.50;99.90
5930;DHT22;2990;48.746;9.236;2022-07-06T05:06:05;16.50;99.90
5930;DHT22;2990;48.746;9.236;2022-07-06T05:08:31;16.50;99.90
5930;DHT22;2990;48.746;9.236;2022-07-06T05:10:56;16.60;99.90
5930;DHT22;2990;48.746;9.236;2022-07-06T05:13:22;16.70;99.90
5930;DHT22;2990;48.746;9.236;2022-07-06T05:15:48;16.70;99.90
5930;DHT22;2990;48.746;9.236;2022-07-06T05:18:13;16.90;99.90
5930;DHT22;2990;48.746;9.236;2022-07-06T05:20:39;16.90;99.90
5930;DHT22;2990;48.746;9.236;2022-07-06T05:23:05;17.00;99.90
5930;DHT22;2990;48.746;9.236;2022-07-06T05:25:30;17.10;99.90
5930;DHT22;2990;48.746;9.236;2022-07-06T05:27:57;17.10;99.90
5930;DHT22;2990;48.746;9.236;2022-07-06T05:30:22;17.10;99.90
5930;DHT22;2990;48.746;9.236;2022-07-06T05:32:48;17.10;99.90
5930;DHT22;2990;48.746;9.236;2022-07-06T05:35:13;17.10;99.90
5930;DHT22;2990;48.746;9.236;2022-07-06T05:37:39;17.20;99.90
5930;DHT22;2990;48.746;9.236;2022-07-06T05:40:05;17.20;99.90
5930;DHT22;2990;48.746;9.236;2022-07-06T05:42:30;17.30;99.90
5930;DHT22;2990;48.746;9.236;2022-07-06T05:44:56;17.30;99.90
5930;DHT22;2990;48.746;9.236;2022-07-06T05:47:22;17.40;99.90
5930;DHT22;2990;48.746;9.236;2022-07-06T05:50:06;17.40;99.90
5930;DHT22;2990;48.746;9.236;2022-07-06T05:52:42;17.50;99.90
5930;DHT22;2990;48.746;9.236;2022-07-06T05:55:09;17.50;99.90
5930;DHT22;2990;48.746;9.236;2022-07-06T05:57:35;17.50;99.90
5930;DHT22;2990;48.746;9.236;2022-07-06T06:00:01;17.70;99.90
5930;DHT22;2990;48.746;9.236;2022-07-06T06:02:26;17.80;99.90
5930;DHT22;2990;48.746;9.236;2022-07-06T06:04:53;17.80;97.00
5930;DHT22;2990;48.746;9.236;2022-07-06T06:07:18;17.90;81.20
5930;DHT22;2990;48.746;9.236;2022-07-06T06:09:44;18.00;68.30
5930;DHT22;2990;48.746;9.236;2022-07-06T06:12:10;18.00;59.20
5930;DHT22;2990;48.746;9.236;2022-07-06T06:14:35;18.00;57.90
5930;DHT22;2990;48.746;9.236;2022-07-06T06:17:01;18.00;73.90
5930;DHT22;2990;48.746;9.236;2022-07-06T06:19:26;18.20;74.10
5930;DHT22;2990;48.746;9.236;2022-07-06T06:21:52;18.20;34.20
5930;DHT22;2990;48.746;9.236;2022-07-06T06:24:18;18.10;40.70
5930;DHT22;2990;48.746;9.236;2022-07-06T06:26:43;18.20;68.20
5930;DHT22;2990;48.746;9.236;2022-07-06T06:29:09;18.30;56.80
5930;DHT22;2990;48.746;9.236;2022-07-06T06:31:34;18.60;61.30
5930;DHT22;2990;48.746;9.236;2022-07-06T06:34:00;18.60;34.80
5930;DHT22;2990;48.746;9.236;2022-07-06T06:36:26;18.80;60.00
5930;DHT22;2990;48.746;9.236;2022-07-06T06:38:52;18.80;27.50
5930;DHT22;2990;48.746;9.236;2022-07-06T06:41:17;18.90;31.20
5930;DHT22;2990;48.746;9.236;2022-07-06T06:43:46;19.20;23.20
5930;DHT22;2990;48.746;9.236;2022-07-06T06:46:11;19.30;20.90
5930;DHT22;2990;48.746;9.236;2022-07-06T06:48:37;19.50;9.80
5930;DHT22;2990;48.746;9.236;2022-07-06T06:51:04;19.60;1.00
5930;DHT22;2990;48.746;9.236;2022-07-06T06:53:29;19.60;1.00
5930;DHT22;2990;48.746;9.236;2022-07-06T06:55:55;19.60;1.00
5930;DHT22;2990;48.746;9.236;2022-07-06T06:58:20;19.80;1.00
5930;DHT22;2990;48.746;9.236;2022-07-06T07:00:46;19.90;1.00
5930;DHT22;2990;48.746;9.236;2022-07-06T07:03:12;20.00;1.00
5930;DHT22;2990;48.746;9.236;2022-07-06T07:05:38;19.90;1.00
5930;DHT22;2990;48.746;9.236;2022-07-06T07:08:04;19.90;1.00
5930;DHT22;2990;48.746;9.236;2022-07-06T07:10:30;19.90;1.00
5930;DHT22;2990;48.746;9.236;2022-07-06T07:12:55;19.90;1.00
5930;DHT22;2990;48.746;9.236;2022-07-06T07:15:21;19.80;1.00
5930;DHT22;2990;48.746;9.236;2022-07-06T07:17:46;19.90;1.00
5930;DHT22;2990;48.746;9.236;2022-07-06T07:20:12;20.10;1.00
5930;DHT22;2990;48.746;9.236;2022-07-06T07:22:37;20.30;1.00
5930;DHT22;2990;48.746;9.236;2022-07-06T07:25:04;20.40;1.00
5930;DHT22;2990;48.746;9.236;2022-07-06T07:27:30;20.20;1.00
5930;DHT22;2990;48.746;9.236;2022-07-06T07:29:55;20.30;1.00
5930;DHT22;2990;48.746;9.236;2022-07-06T07:32:21;20.20;1.00
5930;DHT22;2990;48.746;9.236;2022-07-06T07:34:47;20.20;1.00
5930;DHT22;2990;48.746;9.236;2022-07-06T07:37:12;20.30;1.00
5930;DHT22;2990;48.746;9.236;2022-07-06T07:39:37;20.40;1.00
5930;DHT22;2990;48.746;9.236;2022-07-06T07:42:03;20.50;1.00
5930;DHT22;2990;48.746;9.236;2022-07-06T07:44:29;20.60;1.00
5930;DHT22;2990;48.746;9.236;2022-07-06T07:46:55;20.70;1.00
5930;DHT22;2990;48.746;9.236;2022-07-06T07:49:20;20.80;1.00
5930;DHT22;2990;48.746;9.236;2022-07-06T07:51:49;20.90;1.00
5930;DHT22;2990;48.746;9.236;2022-07-06T07:54:15;20.90;1.00
5930;DHT22;2990;48.746;9.236;2022-07-06T07:56:40;20.90;1.00
5930;DHT22;2990;48.746;9.236;2022-07-06T07:59:07;20.90;1.00
5930;DHT22;2990;48.746;9.236;2022-07-06T08:01:33;20.90;1.00
5930;DHT22;2990;48.746;9.236;2022-07-06T08:03:58;20.80;1.00
5930;DHT22;2990;48.746;9.236;2022-07-06T08:06:24;20.90;1.00
5930;DHT22;2990;48.746;9.236;2022-07-06T08:08:50;20.80;1.00
5930;DHT22;2990;48.746;9.236;2022-07-06T08:11:15;21.00;1.00
5930;DHT22;2990;48.746;9.236;2022-07-06T08:13:41;21.10;1.00
5930;DHT22;2990;48.746;9.236;2022-07-06T08:16:07;21.30;1.00
5930;DHT22;2990;48.746;9.236;2022-07-06T08:18:33;21.20;1.00
5930;DHT22;2990;48.746;9.236;2022-07-06T08:20:59;21.10;1.00
5930;DHT22;2990;48.746;9.236;2022-07-06T08:23:25;21.20;1.00
5930;DHT22;2990;48.746;9.236;2022-07-06T08:25:50;21.30;1.00
5930;DHT22;2990;48.746;9.236;2022-07-06T08:28:16;21.30;1.00
5930;DHT22;2990;48.746;9.236;2022-07-06T08:30:41;21.70;1.00
5930;DHT22;2990;48.746;9.236;2022-07-06T08:33:07;21.80;1.00
5930;DHT22;2990;48.746;9.236;2022-07-06T08:35:32;21.90;1.00
5930;DHT22;2990;48.746;9.236;2022-07-06T08:37:58;22.00;1.00
5930;DHT22;2990;48.746;9.236;2022-07-06T08:40:24;22.00;1.00
5930;DHT22;2990;48.746;9.236;2022-07-06T08:42:53;22.10;1.00
5930;DHT22;2990;48.746;9.236;2022-07-06T08:45:20;22.10;1.00
5930;DHT22;2990;48.746;9.236;2022-07-06T08:47:48;22.10;1.00
5930;DHT22;2990;48.746;9.236;2022-07-06T08:50:14;22.20;1.00
5930;DHT22;2990;48.746;9.236;2022-07-06T08:52:41;22.20;1.00
5930;DHT22;2990;48.746;9.236;2022-07-06T08:55:08;22.20;1.00
5930;DHT22;2990;48.746;9.236;2022-07-06T08:57:34;22.30;1.00
5930;DHT22;2990;48.746;9.236;2022-07-06T09:00:00;22.30;1.00
5930;DHT22;2990;48.746;9.236;2022-07-06T09:02:27;22.40;1.00
5930;DHT22;2990;48.746;9.236;2022-07-06T09:04:55;22.60;1.00
5930;DHT22;2990;48.746;9.236;2022-07-06T09:07:22;22.90;1.00
5930;DHT22;2990;48.746;9.236;2022-07-06T09:09:48;23.00;1.00
5930;DHT22;2990;48.746;9.236;2022-07-06T09:12:14;23.10;1.00
5930;DHT22;2990;48.746;9.236;2022-07-06T09:14:40;23.40;1.00
5930;DHT22;2990;48.746;9.236;2022-07-06T09:17:06;23.50;1.00
5930;DHT22;2990;48.746;9.236;2022-07-06T09:19:34;23.40;1.00
5930;DHT22;2990;48.746;9.236;2022-07-06T09:22:01;23.30;1.00
5930;DHT22;2990;48.746;9.236;2022-07-06T09:24:27;23.10;1.00
5930;DHT22;2990;48.746;9.236;2022-07-06T09:26:56;23.00;1.00
5930;DHT22;2990;48.746;9.236;2022-07-06T09:29:32;23.40;1.00
5930;DHT22;2990;48.746;9.236;2022-07-06T09:31:59;23.50;1.00
5930;DHT22;2990;48.746;9.236;2022-07-06T09:34:25;23.60;1.00
5930;DHT22;2990;48.746;9.236;2022-07-06T09:36:52;23.60;1.00
5930;DHT22;2990;48.746;9.236;2022-07-06T09:39:25;23.50;1.00
5930;DHT22;2990;48.746;9.236;2022-07-06T09:42:02;23.60;1.00
5930;DHT22;2990;48.746;9.236;2022-07-06T09:44:34;23.80;1.00
5930;DHT22;2990;48.746;9.236;2022-07-06T09:47:01;23.80;1.00
5930;DHT22;2990;48.746;9.236;2022-07-06T09:49:28;23.90;1.00
5930;DHT22;2990;48.746;9.236;2022-07-06T09:51:59;24.00;1.00
5930;DHT22;2990;48.746;9.236;2022-07-06T09:54:25;24.20;1.00
5930;DHT22;2990;48.746;9.236;2022-07-06T09:56:53;24.50;1.00
5930;DHT22;2990;48.746;9.236;2022-07-06T09:59:24;24.50;1.00
5930;DHT22;2990;48.746;9.236;2022-07-06T10:01:52;24.30;1.00
5930;DHT22;2990;48.746;9.236;2022-07-06T10:04:19;24.40;1.00
5930;DHT22;2990;48.746;9.236;2022-07-06T10:06:45;24.20;1.00
5930;DHT22;2990;48.746;9.236;2022-07-06T10:09:11;24.30;1.00
5930;DHT22;2990;48.746;9.236;2022-07-06T10:11:39;24.40;1.00
5930;DHT22;2990;48.746;9.236;2022-07-06T10:14:06;24.60;1.00
5930;DHT22;2990;48.746;9.236;2022-07-06T10:16:35;24.80;1.00
5930;DHT22;2990;48.746;9.236;2022-07-06T10:19:04;24.70;1.00
5930;DHT22;2990;48.746;9.236;2022-07-06T10:21:30;24.80;1.00
5930;DHT22;2990;48.746;9.236;2022-07-06T10:23:56;24.80;1.00
5930;DHT22;2990;48.746;9.236;2022-07-06T10:26:25;24.70;1.00
5930;DHT22;2990;48.746;9.236;2022-07-06T10:28:52;24.30;1.00
5930;DHT22;2990;48.746;9.236;2022-07-06T10:31:18;24.40;1.00
5930;DHT22;2990;48.746;9.236;2022-07-06T10:33:45;24.30;1.00
5930;DHT22;2990;48.746;9.236;2022-07-06T10:36:11;24.10;1.00
5930;DHT22;2990;48.746;9.236;2022-07-06T10:38:37;24.10;1.00
5930;DHT22;2990;48.746;9.236;2022-07-06T10:41:09;24.40;1.00
5930;DHT22;2990;48.746;9.236;2022-07-06T10:43:42;24.70;1.00
5930;DHT22;2990;48.746;9.236;2022-07-06T10:46:10;25.00;1.00
5930;DHT22;2990;48.746;9.236;2022-07-06T10:48:41;25.10;1.00
5930;DHT22;2990;48.746;9.236;2022-07-06T10:51:08;25.20;1.00
5930;DHT22;2990;48.746;9.236;2022-07-06T10:53:36;25.00;1.00
5930;DHT22;2990;48.746;9.236;2022-07-06T10:56:04;24.80;1.00
5930;DHT22;2990;48.746;9.236;2022-07-06T10:58:41;24.80;1.00
5930;DHT22;2990;48.746;9.236;2022-07-06T11:01:10;24.90;1.00
5930;DHT22;2990;48.746;9.236;2022-07-06T11:11:15;24.90;1.00
5930;DHT22;2990;48.746;9.236;2022-07-06T11:13:47;25.10;1.00
5930;DHT22;2990;48.746;9.236;2022-07-06T11:16:14;25.10;1.00
5930;DHT22;2990;48.746;9.236;2022-07-06T11:18:42;25.20;1.00
5930;DHT22;2990;48.746;9.236;2022-07-06T11:21:19;24.80;1.00
5930;DHT22;2990;48.746;9.236;2022-07-06T11:23:49;24.70;1.00
5930;DHT22;2990;48.746;9.236;2022-07-06T11:26:16;24.70;1.00
5930;DHT22;2990;48.746;9.236;2022-07-06T11:28:46;24.30;1.00
5930;DHT22;2990;48.746;9.236;2022-07-06T11:31:12;24.20;1.00
5930;DHT22;2990;48.746;9.236;2022-07-06T11:33:38;24.20;1.00
5930;DHT22;2990;48.746;9.236;2022-07-06T11:36:22;24.40;1.00
5930;DHT22;2990;48.746;9.236;2022-07-06T11:38:49;24.50;1.00
5930;DHT22;2990;48.746;9.236;2022-07-06T11:41:17;24.30;1.00
5930;DHT22;2990;48.746;9.236;2022-07-06T11:43:43;24.00;1.00
5930;DHT22;2990;48.746;9.236;2022-07-06T11:46:30;24.20;1.00
5930;DHT22;2990;48.746;9.236;2022-07-06T11:49:01;24.80;1.00
5930;DHT22;2990;48.746;9.236;2022-07-06T11:51:29;24.60;1.00
5930;DHT22;2990;48.746;9.236;2022-07-06T11:53:57;24.60;1.00
5930;DHT22;2990;48.746;9.236;2022-07-06T11:56:26;24.50;1.00
5930;DHT22;2990;48.746;9.236;2022-07-06T11:58:54;24.30;1.00
5930;DHT22;2990;48.746;9.236;2022-07-06T12:01:21;24.10;1.00
5930;DHT22;2990;48.746;9.236;2022-07-06T12:03:48;23.60;1.00
5930;DHT22;2990;48.746;9.236;2022-07-06T12:06:17;23.50;1.00
5930;DHT22;2990;48.746;9.236;2022-07-06T12:08:51;23.90;1.00
5930;DHT22;2990;48.746;9.236;2022-07-06T12:11:22;24.20;1.00
5930;DHT22;2990;48.746;9.236;2022-07-06T12:13:49;24.30;1.00
5930;DHT22;2990;48.746;9.236;2022-07-06T12:16:16;24.30;1.00
5930;DHT22;2990;48.746;9.236;2022-07-06T12:18:43;24.40;1.00
5930;DHT22;2990;48.746;9.236;2022-07-06T12:21:15;24.50;1.00
5930;DHT22;2990;48.746;9.236;2022-07-06T12:23:49;24.50;1.00
5930;DHT22;2990;48.746;9.236;2022-07-06T12:26:17;24.50;1.00
5930;DHT22;2990;48.746;9.236;2022-07-06T12:28:43;24.50;1.00
5930;DHT22;2990;48.746;9.236;2022-07-06T12:31:10;24.10;1.00
5930;DHT22;2990;48.746;9.236;2022-07-06T12:33:36;23.50;1.00
5930;DHT22;2990;48.746;9.236;2022-07-06T12:36:10;23.20;1.00
5930;DHT22;2990;48.746;9.236;2022-07-06T12:38:47;23.00;1.00
5930;DHT22;2990;48.746;9.236;2022-07-06T12:41:31;22.90;1.00
5930;DHT22;2990;48.746;9.236;2022-07-06T12:44:08;23.30;1.00
5930;DHT22;2990;48.746;9.236;2022-07-06T12:46:36;23.60;1.00
5930;DHT22;2990;48.746;9.236;2022-07-06T12:49:10;23.40;1.00
5930;DHT22;2990;48.746;9.236;2022-07-06T12:51:59;23.40;1.00
5930;DHT22;2990;48.746;9.236;2022-07-06T12:54:28;23.30;1.00
5930;DHT22;2990;48.746;9.236;2022-07-06T12:57:02;23.40;1.00
5930;DHT22;2990;48.746;9.236;2022-07-06T12:59:29;23.20;1.00
5930;DHT22;2990;48.746;9.236;2022-07-06T13:01:55;23.10;1.00
5930;DHT22;2990;48.746;9.236;2022-07-06T13:04:26;23.20;1.00
5930;DHT22;2990;48.746;9.236;2022-07-06T13:06:52;23.50;1.00
5930;DHT22;2990;48.746;9.236;2022-07-06T13:09:18;23.80;1.00
5930;DHT22;2990;48.746;9.236;2022-07-06T13:11:45;24.10;1.00
5930;DHT22;2990;48.746;9.236;2022-07-06T13:14:11;24.50;1.00
5930;DHT22;2990;48.746;9.236;2022-07-06T13:16:37;24.60;1.00
5930;DHT22;2990;48.746;9.236;2022-07-06T13:19:02;24.80;1.00
5930;DHT22;2990;48.746;9.236;2022-07-06T13:21:28;24.90;1.00
5930;DHT22;2990;48.746;9.236;2022-07-06T13:23:54;24.50;1.00
5930;DHT22;2990;48.746;9.236;2022-07-06T13:26:20;24.60;1.00
5930;DHT22;2990;48.746;9.236;2022-07-06T13:28:45;24.40;1.00
5930;DHT22;2990;48.746;9.236;2022-07-06T13:31:11;24.10;1.00
5930;DHT22;2990;48.746;9.236;2022-07-06T13:33:36;24.00;1.00
5930;DHT22;2990;48.746;9.236;2022-07-06T13:36:02;23.90;1.00
5930;DHT22;2990;48.746;9.236;2022-07-06T13:38:28;23.60;1.00
5930;DHT22;2990;48.746;9.236;2022-07-06T13:40:54;23.80;1.00
5930;DHT22;2990;48.746;9.236;2022-07-06T13:43:19;23.80;1.00
5930;DHT22;2990;48.746;9.236;2022-07-06T13:45:48;23.80;1.00
5930;DHT22;2990;48.746;9.236;2022-07-06T13:48:14;23.60;1.00
5930;DHT22;2990;48.746;9.236;2022-07-06T13:50:39;23.60;1.00
5930;DHT22;2990;48.746;9.236;2022-07-06T13:53:05;23.80;1.00
5930;DHT22;2990;48.746;9.236;2022-07-06T13:55:32;24.00;1.00
5930;DHT22;2990;48.746;9.236;2022-07-06T13:57:57;24.20;1.00
5930;DHT22;2990;48.746;9.236;2022-07-06T14:00:23;24.50;1.00
5930;DHT22;2990;48.746;9.236;2022-07-06T14:02:49;24.70;1.00
5930;DHT22;2990;48.746;9.236;2022-07-06T14:05:14;24.70;1.00
5930;DHT22;2990;48.746;9.236;2022-07-06T14:07:40;24.60;1.00
5930;DHT22;2990;48.746;9.236;2022-07-06T14:10:06;24.70;1.00
5930;DHT22;2990;48.746;9.236;2022-07-06T14:12:31;24.50;1.00
5930;DHT22;2990;48.746;9.236;2022-07-06T14:14:57;24.50;1.00
5930;DHT22;2990;48.746;9.236;2022-07-06T14:17:22;24.40;1.00
5930;DHT22;2990;48.746;9.236;2022-07-06T14:19:49;24.60;1.00
5930;DHT22;2990;48.746;9.236;2022-07-06T14:22:14;24.40;1.00
5930;DHT22;2990;48.746;9.236;2022-07-06T14:24:40;24.40;1.00
5930;DHT22;2990;48.746;9.236;2022-07-06T14:27:06;24.50;1.00
5930;DHT22;2990;48.746;9.236;2022-07-06T14:29:31;24.40;1.00
5930;DHT22;2990;48.746;9.236;2022-07-06T14:31:57;24.10;1.00
5930;DHT22;2990;48.746;9.236;2022-07-06T14:34:23;24.20;1.00
5930;DHT22;2990;48.746;9.236;2022-07-06T14:36:50;24.40;1.00
5930;DHT22;2990;48.746;9.236;2022-07-06T14:39:15;24.40;1.00
5930;DHT22;2990;48.746;9.236;2022-07-06T14:41:41;24.60;1.00
5930;DHT22;2990;48.746;9.236;2022-07-06T14:44:06;24.80;1.00
5930;DHT22;2990;48.746;9.236;2022-07-06T14:46:32;25.00;1.00
5930;DHT22;2990;48.746;9.236;2022-07-06T14:48:59;25.00;1.00
5930;DHT22;2990;48.746;9.236;2022-07-06T14:51:25;25.00;1.00
5930;DHT22;2990;48.746;9.236;2022-07-06T14:53:51;25.00;1.00
5930;DHT22;2990;48.746;9.236;2022-07-06T14:56:16;25.00;1.00
5930;DHT22;2990;48.746;9.236;2022-07-06T14:58:42;24.90;1.00
5930;DHT22;2990;48.746;9.236;2022-07-06T15:01:07;24.80;1.00
5930;DHT22;2990;48.746;9.236;2022-07-06T15:03:33;24.70;1.00
5930;DHT22;2990;48.746;9.236;2022-07-06T15:05:59;24.50;1.00
5930;DHT22;2990;48.746;9.236;2022-07-06T15:08:24;24.70;1.00
5930;DHT22;2990;48.746;9.236;2022-07-06T15:10:50;24.90;1.00
5930;DHT22;2990;48.746;9.236;2022-07-06T15:13:16;24.70;1.00
5930;DHT22;2990;48.746;9.236;2022-07-06T15:15:42;24.90;1.00
5930;DHT22;2990;48.746;9.236;2022-07-06T15:18:07;24.50;1.00
5930;DHT22;2990;48.746;9.236;2022-07-06T15:20:33;24.50;1.00
5930;DHT22;2990;48.746;9.236;2022-07-06T15:22:59;24.50;1.00
5930;DHT22;2990;48.746;9.236;2022-07-06T15:25:24;24.60;1.00
5930;DHT22;2990;48.746;9.236;2022-07-06T15:27:51;24.60;1.00
5930;DHT22;2990;48.746;9.236;2022-07-06T15:30:17;24.40;1.00
5930;DHT22;2990;48.746;9.236;2022-07-06T15:32:43;24.30;1.00
5930;DHT22;2990;48.746;9.236;2022-07-06T15:35:08;24.20;1.00
5930;DHT22;2990;48.746;9.236;2022-07-06T15:37:34;24.20;1.00
5930;DHT22;2990;48.746;9.236;2022-07-06T15:40:02;24.40;1.00
5930;DHT22;2990;48.746;9.236;2022-07-06T15:42:28;24.10;1.00
5930;DHT22;2990;48.746;9.236;2022-07-06T15:44:53;24.00;1.00
5930;DHT22;2990;48.746;9.236;2022-07-06T15:47:19;24.10;1.00
5930;DHT22;2990;48.746;9.236;2022-07-06T15:49:46;23.90;1.00
5930;DHT22;2990;48.746;9.236;2022-07-06T15:52:12;23.80;1.00
5930;DHT22;2990;48.746;9.236;2022-07-06T15:54:37;23.60;1.00
5930;DHT22;2990;48.746;9.236;2022-07-06T15:57:04;23.70;1.00
5930;DHT22;2990;48.746;9.236;2022-07-06T15:59:30;23.80;1.00
5930;DHT22;2990;48.746;9.236;2022-07-06T16:01:56;24.00;1.00
5930;DHT22;2990;48.746;9.236;2022-07-06T16:04:22;23.90;1.00
5930;DHT22;2990;48.746;9.236;2022-07-06T16:06:47;23.60;1.00
5930;DHT22;2990;48.746;9.236;2022-07-06T16:09:13;23.20;1.00
5930;DHT22;2990;48.746;9.236;2022-07-06T16:11:39;23.00;1.00
5930;DHT22;2990;48.746;9.236;2022-07-06T16:14:04;22.80;1.00
5930;DHT22;2990;48.746;9.236;2022-07-06T16:16:30;22.70;1.00
5930;DHT22;2990;48.746;9.236;2022-07-06T16:18:56;22.60;1.00
5930;DHT22;2990;48.746;9.236;2022-07-06T16:21:22;22.40;1.00
5930;DHT22;2990;48.746;9.236;2022-07-06T16:23:48;22.50;1.00
5930;DHT22;2990;48.746;9.236;2022-07-06T16:26:14;22.40;1.00
5930;DHT22;2990;48.746;9.236;2022-07-06T16:28:40;22.40;1.00
5930;DHT22;2990;48.746;9.236;2022-07-06T16:31:05;22.30;1.00
5930;DHT22;2990;48.746;9.236;2022-07-06T16:33:32;22.30;1.00
5930;DHT22;2990;48.746;9.236;2022-07-06T16:36:07;22.30;1.00
5930;DHT22;2990;48.746;9.236;2022-07-06T16:38:33;22.30;1.00
5930;DHT22;2990;48.746;9.236;2022-07-06T16:40:59;22.20;1.00
5930;DHT22;2990;48.746;9.236;2022-07-06T16:43:24;22.20;1.00
5930;DHT22;2990;48.746;9.236;2022-07-06T16:45:50;22.30;1.00
5930;DHT22;2990;48.746;9.236;2022-07-06T16:48:17;22.30;1.00
5930;DHT22;2990;48.746;9.236;2022-07-06T16:50:42;22.20;1.00
5930;DHT22;2990;48.746;9.236;2022-07-06T16:53:08;22.20;1.00
5930;DHT22;2990;48.746;9.236;2022-07-06T16:55:34;22.00;1.00
5930;DHT22;2990;48.746;9.236;2022-07-06T16:58:00;21.90;1.00